Time;durP1;ratioP1;P1;durP2;ratioP2;P2;SDS_P1;SDS_P2;PMS_P1;PMS_P2;Temp;Humidity;BMP_temperature;BMP_pressure;BME280_temperature;BME280_humidity;BME280_pressure;Samples;Min_cycle;Max_cycle;Signal;HPM_P1;HPM_P2
2022/08/17 00:00:35;;;;;;;;;;;;;;;19.74;74.25;99281.13;214016;1277;141480;-65
2022/08/17 00:06:03;;;;;;;13.90;12.10;;;;;;;19.62;74.13;99282.82;213552;1277;127339;-65
2022/08/17 00:11:12;;;;;;;15.20;11.50;;;;;;;19.57;74.28;99283.42;213223;1277;140786;-67
2022/08/17 00:16:22;;;;;;;14.60;12.40;;;;;;;19.46;74.12;99290.23;213953;1277;141799;-66
2022/08/17 00:21:49;;;;;;;16.40;13.00;;;;;;;19.42;74.35;99291.35;213279;1277;142694;-66
2022/08/17 00:27:12;;;;;;;17.80;13.60;;;;;;;19.20;74.25;99290.89;213653;1277;140934;-65
2022/08/17 00:32:16;;;;;;;25.50;14.30;;;;;;;19.08;74.56;99292.48;214188;1277;140657;-67
2022/08/17 00:37:39;;;;;;;14.50;13.10;;;;;;;19.06;74.94;99292.20;214493;1277;141483;-66
2022/08/17 00:42:48;;;;;;;13.80;12.40;;;;;;;19.10;74.97;99295.96;214562;1277;142297;-65
2022/08/17 00:47:52;;;;;;;17.20;14.20;;;;;;;19.16;75.06;99291.52;213587;1277;230598;-66
2022/08/17 00:52:57;;;;;;;18.50;14.10;;;;;;;19.09;74.91;99290.69;215813;1277;141591;-66
2022/08/17 00:58:04;;;;;;;16.10;13.20;;;;;;;19.07;75.10;99287.86;215664;1277;140699;-66
2022/08/17 01:03:20;;;;;;;18.60;15.10;;;;;;;19.10;75.23;99284.94;215262;1278;141575;-66
2022/08/17 01:08:28;;;;;;;16.70;14.60;;;;;;;19.14;75.37;99288.00;215201;1277;140721;-66
2022/08/17 01:13:36;;;;;;;14.90;13.40;;;;;;;19.22;75.42;99293.85;215001;1279;141824;-67
2022/08/17 01:18:46;;;;;;;20.30;15.40;;;;;;;19.19;75.19;99291.46;214710;1277;140248;-66
2022/08/17 01:23:51;;;;;;;16.10;14.50;;;;;;;19.14;75.17;99287.30;214808;1279;141818;-66
2022/08/17 01:28:54;;;;;;;14.90;13.40;;;;;;;19.07;74.96;99290.24;213050;1277;141914;-66
2022/08/17 01:34:03;;;;;;;14.30;13.00;;;;;;;18.94;74.99;99291.48;213209;1278;141654;-65
2022/08/17 01:39:26;;;;;;;15.10;13.50;;;;;;;18.94;75.40;99297.07;214252;1278;142391;-66
2022/08/17 01:44:30;;;;;;;14.70;13.10;;;;;;;18.92;75.39;99301.58;214144;1278;142314;-66
2022/08/17 01:49:34;;;;;;;20.80;12.80;;;;;;;18.80;75.22;99294.66;212537;1278;1654147;-67
2022/08/17 01:54:42;;;;;;;14.70;12.10;;;;;;;18.76;75.24;99293.34;213281;1278;141730;-66
2022/08/17 01:59:46;;;;;;;15.00;13.30;;;;;;;18.68;75.42;99293.80;213400;1277;141640;-67
2022/08/17 02:04:50;;;;;;;19.20;13.70;;;;;;;18.63;75.38;99297.30;213133;1277;141285;-67
2022/08/17 02:09:55;;;;;;;15.40;13.80;;;;;;;18.43;75.08;99301.09;213950;1277;144538;-67
2022/08/17 02:15:00;;;;;;;17.10;12.30;;;;;;;18.22;75.53;99300.53;213716;1277;142629;-65
2022/08/17 02:20:04;;;;;;;16.40;12.50;;;;;;;18.15;75.97;99296.23;214112;1277;141333;-65
2022/08/17 02:25:10;;;;;;;12.60;11.60;;;;;;;18.22;76.22;99293.10;214532;1277;141362;-65
2022/08/17 02:30:14;;;;;;;15.30;13.10;;;;;;;18.28;76.43;99289.02;213164;1277;141756;-66
2022/08/17 02:35:38;;;;;;;17.10;12.20;;;;;;;18.36;76.35;99279.08;214254;1277;140649;-66
2022/08/17 02:40:41;;;;;;;18.10;12.60;;;;;;;18.42;76.46;99278.21;214062;1278;140981;-66
2022/08/17 02:45:47;;;;;;;15.80;11.40;;;;;;;18.43;76.41;99276.31;214931;1277;140413;-65
2022/08/17 02:50:52;;;;;;;12.00;11.00;;;;;;;18.44;76.42;99279.54;214591;1277;139887;-66
2022/08/17 02:55:56;;;;;;;15.90;10.20;;;;;;;18.38;75.98;99279.59;214664;1277;140739;-66
2022/08/17 03:01:00;;;;;;;16.10;12.60;;;;;;;18.34;75.99;99280.92;215591;1277;141444;-66
2022/08/17 03:06:06;;;;;;;19.40;14.20;;;;;;;18.27;75.84;99284.48;215700;1277;140037;-66
2022/08/17 03:11:10;;;;;;;15.00;12.00;;;;;;;18.11;75.76;99288.79;214529;1276;139872;-66
2022/08/17 03:16:14;;;;;;;16.80;11.90;;;;;;;18.05;76.01;99289.16;214169;1278;142198;-64
2022/08/17 03:21:17;;;;;;;14.40;13.00;;;;;;;18.02;75.89;99294.99;213476;1277;140856;-64
2022/08/17 03:26:21;;;;;;;13.10;11.80;;;;;;;17.99;76.52;99298.87;214634;1278;140746;-67
2022/08/17 03:31:25;;;;;;;13.60;12.20;;;;;;;17.95;76.31;99300.72;213432;1277;140575;-65
2022/08/17 03:36:32;;;;;;;12.80;11.60;;;;;;;17.82;76.40;99304.77;213649;1277;140266;-65
2022/08/17 03:41:41;;;;;;;13.10;11.60;;;;;;;17.83;76.93;99306.77;214210;1277;141065;-65
2022/08/17 03:57:35;;;;;;;15.70;11.50;;;;;;;18.13;77.41;99318.65;213905;1277;140198;-64
2022/08/17 04:02:41;;;;;;;21.90;12.20;;;;;;;18.21;77.48;99319.12;213540;1278;141118;-66
2022/08/17 04:07:45;;;;;;;12.60;11.30;;;;;;;18.26;77.39;99327.08;213743;1278;140492;-65
2022/08/17 04:12:51;;;;;;;12.30;11.10;;;;;;;18.25;77.03;99330.92;213770;1277;143443;-66
2022/08/17 04:17:55;;;;;;;12.30;10.80;;;;;;;18.30;77.30;99335.86;213113;1277;141990;-65
2022/08/17 04:23:04;;;;;;;14.10;10.80;;;;;;;18.34;77.20;99340.11;213790;1277;141484;-65
2022/08/17 04:28:07;;;;;;;20.40;11.60;;;;;;;18.41;77.43;99342.20;214475;1278;140092;-66
2022/08/17 04:33:24;;;;;;;12.00;10.80;;;;;;;18.43;77.30;99339.08;213910;1277;141273;-65
2022/08/17 04:38:30;;;;;;;14.00;12.50;;;;;;;18.57;77.55;99346.06;214639;1278;144576;-65
2022/08/17 04:43:37;;;;;;;11.70;10.70;;;;;;;18.66;77.63;99354.33;215714;1277;141595;-67
2022/08/17 04:48:44;;;;;;;12.80;11.60;;;;;;;18.85;77.83;99358.30;215702;1277;142406;-66
2022/08/17 04:53:52;;;;;;;13.20;11.90;;;;;;;19.09;78.00;99360.00;215545;1277;141206;-66
2022/08/17 04:59:01;;;;;;;11.70;10.50;;;;;;;19.38;78.06;99361.66;215583;1277;140527;-66
2022/08/17 05:04:12;;;;;;;14.40;13.10;;;;;;;19.63;78.02;99368.18;215643;1277;140650;-66
2022/08/17 05:09:36;;;;;;;13.40;12.10;;;;;;;19.85;77.99;99364.42;215646;1278;140600;-67
2022/08/17 05:14:40;;;;;;;14.90;13.40;;;;;;;20.03;77.90;99374.45;215533;1277;140598;-67
2022/08/17 05:19:43;;;;;;;14.20;12.80;;;;;;;20.25;78.03;99376.14;214863;1277;140673;-66
2022/08/17 05:24:54;;;;;;;15.70;14.20;;;;;;;20.51;78.02;99375.10;213912;1278;140721;-66
2022/08/17 05:29:59;;;;;;;17.90;15.30;;;;;;;20.74;78.12;99376.52;214573;1277;141189;-65
2022/08/17 05:35:04;;;;;;;18.30;16.20;;;;;;;21.08;78.19;99378.39;214274;1277;140637;-65
2022/08/17 05:40:09;;;;;;;36.80;18.00;;;;;;;21.97;77.78;99378.64;213697;1278;140649;-65
2022/08/17 05:45:14;;;;;;;24.50;17.80;;;;;;;22.65;77.58;99370.41;214247;1277;140853;-65
2022/08/17 05:50:54;;;;;;;23.60;21.30;;;;;;;23.02;77.01;99377.67;213731;1278;140916;-64
2022/08/17 05:56:09;;;;;;;21.20;19.00;;;;;;;23.50;76.39;99375.57;213814;1278;140408;-64
2022/08/17 06:01:43;;;;;;;24.60;21.60;;;;;;;23.79;75.77;99379.23;212856;1278;140790;-65
2022/08/17 06:07:04;;;;;;;29.30;21.60;;;;;;;23.99;75.23;99380.86;213147;1279;140211;-66
2022/08/17 06:13:00;;;;;;;24.60;21.60;;;;;;;24.21;74.87;99382.10;213228;1278;141039;-65
2022/08/17 06:18:07;;;;;;;23.60;20.10;;;;;;;24.33;74.93;99383.88;213329;1278;140059;-64
2022/08/17 06:23:25;;;;;;;22.90;20.30;;;;;;;24.43;74.56;99389.92;214036;1277;141523;-64
2022/08/17 06:28:41;;;;;;;18.80;16.80;;;;;;;24.55;74.48;99385.59;214290;1278;141049;-65
2022/08/17 06:33:46;;;;;;;;;;;;;;;24.70;73.92;99390.19;213315;1278;139970;-65
2022/08/17 06:39:37;;;;;;;23.70;16.40;;;;;;;24.80;73.66;99395.26;214277;1278;126621;-64
2022/08/17 06:45:16;;;;;;;16.10;14.40;;;;;;;24.95;73.14;99394.80;214027;1278;140268;-65
2022/08/17 06:50:48;;;;;;;18.40;14.20;;;;;;;25.22;72.65;99394.27;214472;1279;142745;-64
2022/08/17 06:56:05;;;;;;;19.10;14.70;;;;;;;25.51;72.00;99398.73;214962;1277;139955;-66
2022/08/17 07:01:19;;;;;;;15.90;14.40;;;;;;;25.89;71.51;99394.77;215493;1277;140806;-65
2022/08/17 07:06:31;;;;;;;19.80;13.40;;;;;;;26.64;70.65;99394.73;215172;1277;140909;-65
2022/08/17 07:11:47;;;;;;;16.60;12.70;;;;;;;27.80;69.23;99394.63;214747;1278;140543;-66
2022/08/17 07:16:54;;;;;;;16.00;13.10;;;;;;;29.16;67.80;99394.05;215619;1278;140108;-65
2022/08/17 07:22:12;;;;;;;18.00;12.90;;;;;;;29.91;65.93;99393.18;214967;1278;140539;-65
2022/08/17 07:27:44;;;;;;;13.60;12.10;;;;;;;30.30;64.22;99401.01;213993;1279;141259;-65
2022/08/17 07:32:52;;;;;;;13.60;12.30;;;;;;;30.66;63.48;99404.58;214537;1278;154273;-64
2022/08/17 07:38:13;;;;;;;15.60;12.40;;;;;;;31.09;62.63;99403.05;213185;1278;141680;-64
2022/08/17 07:43:39;;;;;;;12.80;11.40;;;;;;;31.24;61.46;99402.80;213004;1277;142499;-64
2022/08/17 07:48:53;;;;;;;9.90;9.20;;;;;;;31.52;60.72;99404.58;213424;1277;141674;-65
2022/08/17 07:54:01;;;;;;;11.60;10.50;;;;;;;31.70;59.44;99399.92;213330;1277;142198;-65
2022/08/17 07:59:21;;;;;;;10.50;9.50;;;;;;;31.88;58.56;99406.09;213388;1277;235042;-64
2022/08/17 08:04:33;;;;;;;12.00;10.80;;;;;;;31.95;57.78;99406.67;213454;1277;140764;-64
2022/08/17 08:10:08;;;;;;;10.90;9.30;;;;;;;32.08;56.86;99420.46;213911;1277;141034;-64
2022/08/17 08:15:16;;;;;;;12.80;10.90;;;;;;;32.11;56.62;99415.58;213040;1277;142206;-65
2022/08/17 08:20:38;;;;;;;14.50;10.60;;;;;;;32.22;56.10;99419.83;213884;1277;140135;-65
2022/08/17 08:26:47;;;;;;;16.20;10.30;;;;;;;32.25;55.36;99424.98;213712;1278;141148;-65
2022/08/17 08:31:58;;;;;;;10.90;9.80;;;;;;;32.29;54.69;99419.00;214120;1278;140717;-68
2022/08/17 08:37:28;;;;;;;10.70;9.50;;;;;;;32.29;53.78;99419.70;213209;1279;141110;-66
2022/08/17 08:42:56;;;;;;;16.70;10.00;;;;;;;32.41;54.03;99416.05;213538;1277;150920;-67
2022/08/17 08:48:08;;;;;;;10.80;9.80;;;;;;;32.51;53.22;99427.82;214288;1277;232545;-66
2022/08/17 08:53:42;;;;;;;12.20;11.00;;;;;;;32.21;52.28;99425.02;215638;1277;139760;-66
2022/08/17 08:59:10;;;;;;;20.20;10.50;;;;;;;32.23;51.83;99421.25;215371;1277;230117;-69
2022/08/17 09:04:34;;;;;;;11.00;9.80;;;;;;;32.29;51.42;99421.45;215037;1277;139775;-68
2022/08/17 09:10:23;;;;;;;9.60;8.80;;;;;;;32.50;51.03;99418.05;215388;1277;140340;-68
2022/08/17 09:15:33;;;;;;;11.80;10.40;;;;;;;32.66;50.74;99409.42;215389;1278;139465;-68
2022/08/17 09:20:59;;;;;;;12.30;8.70;;;;;;;32.75;50.73;99408.65;214066;1277;141268;-67
2022/08/17 09:26:25;;;;;;;8.80;8.00;;;;;;;32.80;50.12;99412.07;213790;1277;140577;-66
2022/08/17 09:31:38;;;;;;;9.50;8.40;;;;;;;32.79;49.17;99413.95;213149;1277;141369;-66
2022/08/17 09:37:13;;;;;;;12.30;9.50;;;;;;;32.70;48.53;99414.94;213849;1277;139765;-68
2022/08/17 09:42:39;;;;;;;;;;;;;;;32.80;48.69;99411.84;214058;1277;141251;-68
2022/08/17 09:47:55;;;;;;;8.40;7.40;;;;;;;32.86;48.43;99408.45;214773;1277;129200;-68
2022/08/17 09:52:58;;;;;;;11.60;7.90;;;;;;;32.92;47.70;99408.79;212811;1277;140201;-66
2022/08/17 09:58:13;;;;;;;18.60;9.50;;;;;;;32.97;47.02;99406.66;213234;1277;140393;-66
2022/08/17 10:03:42;;;;;;;13.60;9.00;;;;;;;32.88;46.41;99400.26;214161;1277;140412;-66
2022/08/17 10:09:10;;;;;;;8.00;7.30;;;;;;;32.96;46.99;99399.64;212995;1277;142858;-67
2022/08/17 10:14:30;;;;;;;12.70;7.80;;;;;;;32.98;46.53;99404.30;213330;1277;139899;-66
2022/08/17 10:20:15;;;;;;;8.40;7.70;;;;;;;32.92;46.21;99408.39;213390;1276;140303;-65
2022/08/17 10:31:01;;;;;;;16.30;8.50;;;;;;;33.21;45.73;99397.44;213697;1277;139509;-67
2022/08/17 10:36:46;;;;;;;11.70;8.60;;;;;;;33.31;44.41;99400.70;214003;1277;140460;-68
2022/08/17 10:41:56;;;;;;;7.40;6.80;;;;;;;33.45;44.32;99405.18;214421;1277;140334;-67
2022/08/17 10:47:13;;;;;;;9.30;8.40;;;;;;;33.44;43.86;99407.08;214404;1277;140226;-67
2022/08/17 10:52:19;;;;;;;13.80;9.20;;;;;;;33.32;44.16;99405.90;213335;1277;140197;-67
2022/08/17 10:57:25;;;;;;;9.50;8.60;;;;;;;33.37;43.99;99409.13;215169;1277;139854;-69
2022/08/17 11:02:39;;;;;;;8.80;7.90;;;;;;;33.53;44.22;99419.39;215200;1277;140344;-67
2022/08/17 11:08:09;;;;;;;9.60;7.60;;;;;;;33.47;43.26;99420.10;214064;1277;140555;-68
2022/08/17 11:13:29;;;;;;;9.00;8.10;;;;;;;33.44;43.40;99413.08;212940;1277;141319;-68
2022/08/17 11:19:21;;;;;;;10.80;9.50;;;;;;;33.51;43.81;99407.87;215284;1277;139987;-68
2022/08/17 11:24:38;;;;;;;10.50;9.70;;;;;;;33.58;43.73;99402.33;214550;1277;140430;-66
2022/08/17 11:29:46;;;;;;;10.90;9.60;;;;;;;33.72;43.13;99409.71;214180;1277;140507;-69
2022/08/17 11:35:30;;;;;;;15.60;9.30;;;;;;;33.80;43.14;99404.20;213411;1277;140838;-67
2022/08/17 11:40:43;;;;;;;8.70;7.90;;;;;;;33.72;42.55;99400.55;213383;1279;141544;-66
2022/08/17 11:46:15;;;;;;;12.60;9.40;;;;;;;33.60;42.41;99403.48;214066;1279;140296;-65
2022/08/17 11:52:06;;;;;;;10.00;9.10;;;;;;;33.36;42.73;99401.79;213135;1277;140300;-68
2022/08/17 11:57:26;;;;;;;9.40;8.60;;;;;;;33.16;42.99;99400.43;213028;1277;142037;-68
2022/08/17 12:02:34;;;;;;;10.50;9.00;;;;;;;32.58;43.09;99400.49;213651;1277;141288;-69
2022/08/17 12:07:50;;;;;;;9.90;9.00;;;;;;;32.11;43.50;99401.01;212724;1278;139564;-69
2022/08/17 12:12:56;;;;;;;9.60;8.50;;;;;;;32.06;44.51;99396.73;213608;1277;140310;-68
2022/08/17 12:18:03;;;;;;;14.70;9.30;;;;;;;32.33;43.43;99397.89;213318;1279;139673;-68
2022/08/17 12:23:37;;;;;;;10.20;9.40;;;;;;;32.54;43.01;99395.11;214178;1278;140079;-69
2022/08/17 12:28:45;;;;;;;13.60;11.10;;;;;;;32.42;43.42;99398.47;212492;1279;139695;-67
2022/08/17 12:33:50;;;;;;;11.60;10.50;;;;;;;32.46;43.64;99397.70;213924;1278;140455;-66
2022/08/17 12:39:05;;;;;;;12.50;10.50;;;;;;;32.18;43.55;99395.05;214319;1279;140958;-68
2022/08/17 12:44:30;;;;;;;11.10;9.10;;;;;;;32.08;43.85;99385.95;214542;1279;141176;-67
2022/08/17 12:49:42;;;;;;;12.10;9.40;;;;;;;31.95;44.25;99381.55;215401;1278;140083;-69
2022/08/17 12:54:45;;;;;;;10.30;9.40;;;;;;;32.14;44.21;99383.92;215355;1278;140427;-69
2022/08/17 13:00:08;;;;;;;11.60;10.10;;;;;;;32.33;43.81;99378.98;215286;1277;141185;-68
2022/08/17 13:05:29;;;;;;;11.80;10.20;;;;;;;32.57;43.78;99368.08;215611;1277;141501;-68
2022/08/17 13:10:34;;;;;;;10.20;9.40;;;;;;;32.78;43.72;99364.27;215363;1275;140936;-66
2022/08/17 13:15:40;;;;;;;15.30;10.10;;;;;;;32.83;43.51;99372.88;215419;1277;140135;-69
2022/08/17 13:20:54;;;;;;;10.70;9.60;;;;;;;32.74;43.16;99368.75;214305;1277;140496;-67
2022/08/17 13:26:05;;;;;;;11.00;10.20;;;;;;;32.60;43.09;99358.47;213535;1277;141011;-68
2022/08/17 13:31:36;;;;;;;10.80;9.20;;;;;;;32.70;43.13;99359.68;212442;1277;140053;-66
2022/08/17 13:37:19;;;;;;;9.80;8.80;;;;;;;32.57;42.80;99363.66;214817;1277;140567;-67
2022/08/17 13:42:49;;;;;;;10.60;9.20;;;;;;;32.49;43.21;99361.05;213022;1277;139992;-67
2022/08/17 13:48:07;;;;;;;11.60;7.60;;;;;;;32.41;43.16;99362.20;212418;1279;1714308;-68
2022/08/17 13:53:34;;;;;;;10.20;9.10;;;;;;;32.45;42.40;99369.31;213813;1277;140943;-66
2022/08/17 13:58:52;;;;;;;8.90;7.90;;;;;;;32.55;42.48;99370.13;213841;1277;142041;-66
2022/08/17 14:03:58;;;;;;;8.90;7.80;;;;;;;32.60;42.21;99377.23;214258;1277;140480;-66
2022/08/17 14:09:04;;;;;;;8.70;8.00;;;;;;;32.56;41.77;99381.71;213509;1277;150691;-66
2022/08/17 14:14:08;;;;;;;8.80;8.00;;;;;;;32.55;41.49;99377.63;212962;1277;140970;-66
2022/08/17 14:19:14;;;;;;;8.30;7.50;;;;;;;32.53;41.60;99375.40;212643;1277;142409;-66
2022/08/17 14:24:34;;;;;;;10.00;8.60;;;;;;;32.56;41.73;99373.84;213448;1277;139560;-66
2022/08/17 14:29:39;;;;;;;8.40;7.40;;;;;;;32.54;41.85;99367.20;214001;1277;139473;-67
2022/08/17 14:34:44;;;;;;;10.90;7.30;;;;;;;32.49;41.82;99363.41;214699;1277;140266;-67
2022/08/17 14:39:48;;;;;;;9.00;7.60;;;;;;;32.46;42.13;99361.04;214075;1277;139579;-66
2022/08/17 14:44:54;;;;;;;13.20;8.10;;;;;;;32.39;41.70;99358.03;214611;1275;139525;-68
2022/08/17 14:49:58;;;;;;;8.70;7.90;;;;;;;32.28;41.52;99357.61;214336;1279;140665;-67
2022/08/17 14:55:01;;;;;;;16.60;8.00;;;;;;;32.21;41.43;99357.33;214869;1277;139834;-66
2022/08/17 15:00:06;;;;;;;8.90;7.80;;;;;;;32.14;41.61;99360.05;214205;1276;140773;-67
2022/08/17 15:05:10;;;;;;;10.10;7.20;;;;;;;32.08;41.75;99356.49;215304;1279;140192;-68
2022/08/17 15:10:14;;;;;;;8.60;7.60;;;;;;;32.04;41.46;99360.73;215450;1277;140399;-69
2022/08/17 15:15:18;;;;;;;7.80;7.10;;;;;;;31.94;41.69;99355.95;215418;1277;139902;-68
2022/08/17 15:20:27;;;;;;;9.40;7.80;;;;;;;32.03;42.29;99357.17;214180;1277;140591;-67
2022/08/17 15:25:32;;;;;;;12.60;7.20;;;;;;;32.11;42.22;99359.87;215191;1277;140423;-66
2022/08/17 15:30:37;;;;;;;12.10;8.30;;;;;;;32.10;42.39;99358.45;215127;1277;141294;-66
2022/08/17 15:35:41;;;;;;;9.90;8.00;;;;;;;32.02;42.52;99358.67;213769;1278;153777;-66
2022/08/17 15:40:48;;;;;;;14.30;12.80;;;;;;;32.01;42.08;99360.48;215062;1279;143227;-70
2022/08/17 15:45:59;;;;;;;14.30;13.00;;;;;;;32.10;43.27;99369.56;214649;1277;141076;-67
2022/08/17 15:51:03;;;;;;;14.80;13.40;;;;;;;32.20;43.73;99372.05;213714;1277;141078;-66
2022/08/17 15:56:08;;;;;;;15.10;13.50;;;;;;;32.16;43.89;99373.29;214857;1277;140440;-67
2022/08/17 16:01:17;;;;;;;15.00;12.30;;;;;;;32.01;44.59;99371.98;214483;1277;139904;-69
2022/08/17 16:06:41;;;;;;;14.10;12.80;;;;;;;31.77;45.23;99372.24;212731;1277;140755;-66
2022/08/17 16:11:45;;;;;;;14.80;13.20;;;;;;;31.50;45.84;99380.16;213494;1277;140281;-67
2022/08/17 16:16:58;;;;;;;14.20;12.70;;;;;;;31.12;46.52;99380.26;214014;1277;140638;-66
2022/08/17 16:22:05;;;;;;;20.40;13.30;;;;;;;30.77;47.51;99379.85;212818;1277;140762;-66
2022/08/17 16:27:10;;;;;;;16.40;14.20;;;;;;;30.51;48.06;99376.42;213696;1277;139856;-66
2022/08/17 16:32:22;;;;;;;20.70;13.40;;;;;;;30.36;48.68;99386.53;214203;1278;141534;-66
2022/08/17 16:37:36;;;;;;;15.70;13.40;;;;;;;30.21;49.01;99388.34;214418;1278;140483;-67
2022/08/17 16:42:41;;;;;;;18.20;14.50;;;;;;;30.06;49.42;99391.42;213797;1277;141040;-67
2022/08/17 16:47:48;;;;;;;15.60;12.50;;;;;;;29.86;50.20;99391.46;213741;1277;140775;-68
2022/08/17 16:53:15;;;;;;;15.40;13.60;;;;;;;29.59;50.67;99394.36;213728;1277;141112;-65
2022/08/17 16:58:22;;;;;;;23.00;13.90;;;;;;;29.31;51.46;99392.73;215300;1277;140334;-66
2022/08/17 17:03:28;;;;;;;15.80;14.10;;;;;;;29.14;51.99;99396.30;215423;1277;141675;-66
2022/08/17 17:08:51;;;;;;;15.20;13.80;;;;;;;28.99;52.62;99402.65;215300;1277;140619;-66
2022/08/17 17:14:00;;;;;;;13.50;12.20;;;;;;;28.81;53.60;99409.73;215066;1279;140772;-65
2022/08/17 17:19:35;;;;;;;22.90;12.90;;;;;;;28.60;54.27;99410.13;214846;1277;140950;-66
2022/08/17 17:24:57;;;;;;;17.80;13.00;;;;;;;28.39;55.04;99408.55;213825;1277;140010;-66
2022/08/17 17:30:12;;;;;;;17.80;14.30;;;;;;;28.19;55.54;99411.24;214311;1277;141365;-67
2022/08/17 17:35:16;;;;;;;14.90;13.60;;;;;;;27.97;55.86;99408.96;213731;1275;140601;-67
2022/08/17 17:40:30;;;;;;;15.80;14.30;;;;;;;27.75;56.54;99405.60;214311;1277;141871;-66
2022/08/17 17:45:51;;;;;;;14.60;13.20;;;;;;;27.54;56.92;99408.92;213405;1277;140785;-65
2022/08/17 17:51:19;;;;;;;16.00;14.40;;;;;;;27.35;57.43;99413.77;213407;1277;140211;-66
2022/08/17 17:57:01;;;;;;;21.60;15.00;;;;;;;27.12;57.95;99414.23;213313;1277;140641;-67
2022/08/17 18:08:23;;;;;;;16.40;14.30;;;;;;;26.68;59.13;99425.17;213123;1277;140337;-66
2022/08/17 18:13:58;;;;;;;19.20;15.50;;;;;;;26.47;59.71;99423.73;213488;1277;141784;-66
2022/08/17 18:19:02;;;;;;;15.40;13.70;;;;;;;26.28;60.17;99428.85;212909;1277;140137;-66
2022/08/17 18:24:13;;;;;;;17.80;15.30;;;;;;;26.06;60.68;99430.48;214451;1277;143240;-66
2022/08/17 18:29:30;;;;;;;16.80;15.00;;;;;;;25.89;61.06;99438.47;212874;1277;140435;-65
2022/08/17 18:34:36;;;;;;;17.30;15.70;;;;;;;25.74;61.67;99441.73;214695;1277;140764;-66
2022/08/17 18:39:54;;;;;;;19.50;15.70;;;;;;;25.59;62.15;99449.60;215442;1277;140812;-67
2022/08/17 18:44:58;;;;;;;15.90;14.50;;;;;;;25.40;62.57;99445.39;213249;1277;222208;-66
2022/08/17 18:50:26;;;;;;;24.90;15.50;;;;;;;25.25;63.07;99443.34;215199;1277;141353;-69
2022/08/17 18:55:31;;;;;;;16.60;15.10;;;;;;;25.18;63.65;99446.82;213099;1278;141851;-67
2022/08/17 19:00:38;;;;;;;15.90;14.60;;;;;;;25.08;63.96;99454.83;215313;1278;161916;-69
2022/08/17 19:05:44;;;;;;;18.70;15.30;;;;;;;24.96;64.09;99470.09;215118;1277;142463;-69
2022/08/17 19:11:08;;;;;;;21.50;15.60;;;;;;;24.88;64.66;99477.80;215555;1277;141130;-67
2022/08/17 19:16:31;;;;;;;23.00;14.50;;;;;;;24.83;65.25;99476.66;213772;1277;141708;-68
2022/08/17 19:21:45;;;;;;;18.20;16.30;;;;;;;24.76;65.34;99477.77;213580;1277;141552;-66
2022/08/17 19:26:55;;;;;;;17.30;15.50;;;;;;;24.70;65.72;99484.31;214563;1278;142261;-67
2022/08/17 19:32:00;;;;;;;15.40;14.00;;;;;;;24.65;66.28;99484.70;214633;1277;142752;-68
2022/08/17 19:37:35;;;;;;;15.20;13.90;;;;;;;24.57;66.37;99483.99;214473;1277;141777;-68
2022/08/17 19:43:22;;;;;;;18.20;16.30;;;;;;;24.43;66.81;99485.08;212321;1278;143975;-66
2022/08/17 19:48:44;;;;;;;23.50;21.00;;;;;;;24.32;67.11;99484.48;214040;1277;143595;-67
2022/08/17 19:54:19;;;;;;;29.80;22.70;;;;;;;24.19;67.46;99492.27;213381;1278;141537;-67
2022/08/17 19:59:40;;;;;;;26.80;20.20;;;;;;;24.12;68.08;99497.61;212675;1279;143511;-66
2022/08/17 20:04:48;;;;;;;26.80;22.30;;;;;;;24.13;68.32;99504.84;213186;1277;141519;-66
2022/08/17 20:10:05;;;;;;;25.80;23.10;;;;;;;24.12;68.82;99503.70;212435;1278;141704;-67
2022/08/17 20:15:22;;;;;;;26.70;20.60;;;;;;;24.13;69.00;99495.27;213422;1278;141625;-66
2022/08/17 20:20:57;;;;;;;25.90;20.60;;;;;;;24.14;69.12;99492.83;212458;1278;142636;-68
2022/08/17 20:26:08;;;;;;;;;;;;;;;24.15;69.43;99484.19;214610;1278;141956;-67
2022/08/17 20:31:49;;;;;;;24.30;19.20;;;;;;;24.07;69.52;99486.45;213843;1278;126414;-65
2022/08/17 20:37:13;;;;;;;25.80;20.40;;;;;;;24.02;69.73;99490.85;214130;1277;140731;-66
2022/08/17 20:42:20;;;;;;;32.70;19.90;;;;;;;23.95;69.49;99491.10;213519;1278;141407;-66
2022/08/17 20:47:45;;;;;;;23.60;19.90;;;;;;;23.86;69.78;99489.99;213795;1277;141258;-67
2022/08/17 20:53:12;;;;;;;21.40;18.90;;;;;;;23.80;69.87;99496.73;215157;1278;140578;-67
2022/08/17 20:58:26;;;;;;;21.10;17.90;;;;;;;23.75;69.81;99501.91;214791;1278;140641;-65
2022/08/17 21:03:36;;;;;;;23.90;17.60;;;;;;;23.70;69.79;99500.23;215414;1278;141021;-65
2022/08/17 21:09:14;;;;;;;20.80;17.10;;;;;;;23.64;69.72;99496.80;215255;1278;141726;-67
2022/08/17 21:14:57;;;;;;;18.60;16.30;;;;;;;23.55;69.94;99493.63;215358;1279;141638;-64
2022/08/17 21:20:26;;;;;;;26.70;18.40;;;;;;;23.41;69.87;99491.79;215198;1279;141628;-65
2022/08/17 21:25:40;;;;;;;22.80;17.50;;;;;;;23.28;69.86;99492.42;215136;1278;142065;-66
2022/08/17 21:30:51;;;;;;;20.40;17.50;;;;;;;23.22;69.97;99495.90;212819;1278;141747;-68
2022/08/17 21:35:58;;;;;;;17.50;15.30;;;;;;;23.12;70.13;99506.75;213921;1278;141382;-67
2022/08/17 21:41:05;;;;;;;24.50;19.20;;;;;;;22.98;69.90;99501.30;214829;1278;143665;-67
2022/08/17 21:46:31;;;;;;;19.50;16.70;;;;;;;22.79;70.28;99496.19;214117;1279;142528;-67
2022/08/17 21:51:43;;;;;;;16.90;15.30;;;;;;;22.72;70.60;99495.30;214542;1277;141600;-67
2022/08/17 21:56:48;;;;;;;19.50;17.40;;;;;;;22.68;70.64;99503.76;214604;1279;141548;-67
2022/08/17 22:01:58;;;;;;;18.60;16.30;;;;;;;22.66;70.70;99508.61;213198;1279;141796;-68
2022/08/17 22:07:12;;;;;;;18.30;16.40;;;;;;;22.59;70.66;99508.79;213967;1278;140630;-67
2022/08/17 22:12:22;;;;;;;19.60;17.80;;;;;;;22.49;70.63;99506.03;213278;1278;141822;-68
2022/08/17 22:17:35;;;;;;;21.50;17.40;;;;;;;22.31;70.61;99499.84;214510;1279;141164;-68
2022/08/17 22:28:11;;;;;;;29.80;17.40;;;;;;;22.09;71.15;99485.56;213795;1279;152625;-69
2022/08/17 22:33:40;;;;;;;20.20;17.90;;;;;;;22.05;71.28;99477.91;212972;1277;141907;-69
2022/08/17 22:38:46;;;;;;;16.90;15.20;;;;;;;21.97;71.25;99477.35;215054;1278;141470;-67
2022/08/17 22:43:52;;;;;;;22.40;17.30;;;;;;;21.89;71.47;99467.21;215007;1277;141231;-67
2022/08/17 22:48:58;;;;;;;22.00;17.90;;;;;;;21.81;71.62;99460.31;214249;1278;142241;-71
2022/08/17 22:59:52;;;;;;;18.30;16.50;;;;;;;21.73;72.04;99453.88;215617;1277;140983;-70
2022/08/17 23:05:12;;;;;;;19.00;16.30;;;;;;;21.70;71.91;99455.47;215443;1277;140631;-68
2022/08/17 23:10:18;;;;;;;19.90;15.30;;;;;;;21.69;71.84;99455.27;215545;1277;140733;-69
2022/08/17 23:15:25;;;;;;;17.40;15.80;;;;;;;21.70;72.09;99461.36;215653;1277;141408;-68
2022/08/17 23:20:32;;;;;;;16.90;15.30;;;;;;;21.66;71.93;99462.17;215299;1277;141106;-70
2022/08/17 23:25:37;;;;;;;17.40;15.70;;;;;;;21.41;71.60;99470.94;215534;1277;140762;-68
2022/08/17 23:30:43;;;;;;;18.40;16.70;;;;;;;21.32;72.00;99479.16;213935;1277;141670;-67
2022/08/17 23:35:52;;;;;;;24.30;17.60;;;;;;;21.29;72.06;99489.42;212735;1278;141541;-68
2022/08/17 23:41:03;;;;;;;19.00;15.80;;;;;;;21.30;72.28;99497.49;213962;1277;143044;-66
2022/08/17 23:46:08;;;;;;;17.80;16.10;;;;;;;21.21;72.22;99505.50;213379;1277;211405;-67
2022/08/17 23:51:19;;;;;;;21.40;17.20;;;;;;;21.13;72.32;99510.48;214470;1277;140586;-66
2022/08/17 23:56:25;;;;;;;23.80;18.30;;;;;;;21.10;72.52;99511.89;213777;1277;143069;-68
